sensor_id;sensor_type;location;lat;lon;timestamp;pressure;altitude;pressure_sealevel;temperature;humidity
14117;BME280;7137;51.436;6.544;2023-09-08T00:00:39;101322.41;;;20.84;80.56
14117;BME280;7137;51.436;6.544;2023-09-08T00:03:41;101314.09;;;20.75;79.95
14117;BME280;7137;51.436;6.544;2023-09-08T00:06:42;101309.94;;;20.71;79.71
14117;BME280;7137;51.436;6.544;2023-09-08T00:09:44;101319.44;;;20.61;80.36
14117;BME280;7137;51.436;6.544;2023-09-08T00:12:47;101321.22;;;20.61;80.83
14117;BME280;7137;51.436;6.544;2023-09-08T00:15:48;101312.72;;;20.56;81.36
14117;BME280;7137;51.436;6.544;2023-09-08T00:18:50;101303.41;;;20.49;82.18
14117;BME280;7137;51.436;6.544;2023-09-08T00:21:51;101316.78;;;20.47;81.67
14117;BME280;7137;51.436;6.544;2023-09-08T00:24:53;101318.94;;;20.40;82.17
14117;BME280;7137;51.436;6.544;2023-09-08T00:27:57;101319.13;;;20.37;82.51
14117;BME280;7137;51.436;6.544;2023-09-08T00:30:58;101314.31;;;20.30;82.10
14117;BME280;7137;51.436;6.544;2023-09-08T00:34:01;101312.41;;;20.32;82.17
14117;BME280;7137;51.436;6.544;2023-09-08T00:37:03;101303.88;;;20.27;82.42
14117;BME280;7137;51.436;6.544;2023-09-08T00:40:08;101303.97;;;20.25;83.20
14117;BME280;7137;51.436;6.544;2023-09-08T00:43:11;101305.13;;;20.21;83.80
14117;BME280;7137;51.436;6.544;2023-09-08T00:46:12;101304.38;;;20.19;83.00
14117;BME280;7137;51.436;6.544;2023-09-08T00:49:14;101301.06;;;20.15;82.41
14117;BME280;7137;51.436;6.544;2023-09-08T00:52:15;101307.22;;;20.16;83.71
14117;BME280;7137;51.436;6.544;2023-09-08T00:55:17;101303.03;;;20.12;83.02
14117;BME280;7137;51.436;6.544;2023-09-08T00:58:20;101302.47;;;20.07;83.77
14117;BME280;7137;51.436;6.544;2023-09-08T01:01:22;101299.91;;;20.05;84.43
14117;BME280;7137;51.436;6.544;2023-09-08T01:04:23;101299.34;;;20.00;84.75
14117;BME280;7137;51.436;6.544;2023-09-08T01:07:26;101308.44;;;19.96;84.95
14117;BME280;7137;51.436;6.544;2023-09-08T01:10:29;101307.66;;;19.94;85.35
14117;BME280;7137;51.436;6.544;2023-09-08T01:13:33;101303.59;;;19.89;84.29
14117;BME280;7137;51.436;6.544;2023-09-08T01:16:37;101293.09;;;19.87;85.40
14117;BME280;7137;51.436;6.544;2023-09-08T01:19:41;101306.59;;;19.82;84.89
14117;BME280;7137;51.436;6.544;2023-09-08T01:23:01;101301.78;;;19.75;85.66
14117;BME280;7137;51.436;6.544;2023-09-08T01:26:08;101302.94;;;19.71;86.36
14117;BME280;7137;51.436;6.544;2023-09-08T01:29:13;101301.28;;;19.68;85.79
14117;BME280;7137;51.436;6.544;2023-09-08T01:32:16;101305.84;;;19.66;85.98
14117;BME280;7137;51.436;6.544;2023-09-08T01:35:18;101300.63;;;19.65;86.68
14117;BME280;7137;51.436;6.544;2023-09-08T01:38:21;101303.47;;;19.62;84.99
14117;BME280;7137;51.436;6.544;2023-09-08T01:41:24;101295.72;;;19.59;86.71
14117;BME280;7137;51.436;6.544;2023-09-08T01:44:26;101297.66;;;19.55;87.13
14117;BME280;7137;51.436;6.544;2023-09-08T01:47:29;101296.13;;;19.51;87.30
14117;BME280;7137;51.436;6.544;2023-09-08T01:50:31;101300.84;;;19.46;86.49
14117;BME280;7137;51.436;6.544;2023-09-08T01:53:32;101292.81;;;19.47;86.75
14117;BME280;7137;51.436;6.544;2023-09-08T01:56:35;101293.00;;;19.44;86.27
14117;BME280;7137;51.436;6.544;2023-09-08T01:59:37;101291.34;;;19.42;87.26
14117;BME280;7137;51.436;6.544;2023-09-08T02:02:38;101294.84;;;19.42;86.31
14117;BME280;7137;51.436;6.544;2023-09-08T02:05:41;101292.31;;;19.56;86.37
14117;BME280;7137;51.436;6.544;2023-09-08T02:08:42;101289.56;;;19.58;85.59
14117;BME280;7137;51.436;6.544;2023-09-08T02:11:45;101289.56;;;19.42;87.35
14117;BME280;7137;51.436;6.544;2023-09-08T02:14:47;101288.41;;;19.32;87.18
14117;BME280;7137;51.436;6.544;2023-09-08T02:17:49;101289.50;;;19.28;86.82
14117;BME280;7137;51.436;6.544;2023-09-08T02:20:51;101291.31;;;19.27;87.60
14117;BME280;7137;51.436;6.544;2023-09-08T02:23:53;101287.38;;;19.35;85.54
14117;BME280;7137;51.436;6.544;2023-09-08T02:26:56;101281.88;;;19.38;86.28
14117;BME280;7137;51.436;6.544;2023-09-08T02:29:57;101286.19;;;19.24;87.18
14117;BME280;7137;51.436;6.544;2023-09-08T02:32:59;101293.66;;;19.18;86.95
14117;BME280;7137;51.436;6.544;2023-09-08T02:36:04;101287.75;;;19.13;87.61
14117;BME280;7137;51.436;6.544;2023-09-08T02:39:06;101288.88;;;19.09;88.08
14117;BME280;7137;51.436;6.544;2023-09-08T02:42:09;101288.41;;;19.02;88.46
14117;BME280;7137;51.436;6.544;2023-09-08T02:49:07;101287.47;;;18.87;89.02
14117;BME280;7137;51.436;6.544;2023-09-08T02:52:09;101284.22;;;18.82;89.12
14117;BME280;7137;51.436;6.544;2023-09-08T02:55:11;101286.97;;;18.81;89.38
14117;BME280;7137;51.436;6.544;2023-09-08T02:58:14;101276.03;;;18.71;89.37
14117;BME280;7137;51.436;6.544;2023-09-08T03:01:16;101281.50;;;18.68;89.62
14117;BME280;7137;51.436;6.544;2023-09-08T03:04:20;101286.19;;;18.63;90.28
14117;BME280;7137;51.436;6.544;2023-09-08T03:07:22;101285.41;;;18.61;90.35
14117;BME280;7137;51.436;6.544;2023-09-08T03:10:23;101281.66;;;18.49;91.04
14117;BME280;7137;51.436;6.544;2023-09-08T03:13:26;101282.25;;;18.54;91.19
14117;BME280;7137;51.436;6.544;2023-09-08T03:16:29;101276.53;;;18.46;91.49
14117;BME280;7137;51.436;6.544;2023-09-08T03:19:30;101279.25;;;18.45;91.46
14117;BME280;7137;51.436;6.544;2023-09-08T03:22:32;101267.84;;;18.44;91.28
14117;BME280;7137;51.436;6.544;2023-09-08T03:25:34;101270.53;;;18.43;91.29
14117;BME280;7137;51.436;6.544;2023-09-08T03:28:38;101270.72;;;18.39;91.50
14117;BME280;7137;51.436;6.544;2023-09-08T03:31:39;101265.00;;;18.31;91.86
14117;BME280;7137;51.436;6.544;2023-09-08T03:34:41;101263.44;;;18.27;91.66
14117;BME280;7137;51.436;6.544;2023-09-08T03:37:42;101259.94;;;18.27;92.56
14117;BME280;7137;51.436;6.544;2023-09-08T03:40:44;101264.66;;;18.22;91.41
14117;BME280;7137;51.436;6.544;2023-09-08T03:43:47;101268.41;;;18.18;92.35
14117;BME280;7137;51.436;6.544;2023-09-08T03:46:49;101270.78;;;18.22;91.84
14117;BME280;7137;51.436;6.544;2023-09-08T03:49:51;101280.44;;;18.23;91.95
14117;BME280;7137;51.436;6.544;2023-09-08T03:52:52;101265.50;;;18.22;90.90
14117;BME280;7137;51.436;6.544;2023-09-08T03:55:54;101274.69;;;18.15;91.41
14117;BME280;7137;51.436;6.544;2023-09-08T03:58:57;101268.81;;;18.10;91.66
14117;BME280;7137;51.436;6.544;2023-09-08T04:01:59;101271.44;;;18.10;92.15
14117;BME280;7137;51.436;6.544;2023-09-08T04:05:03;101275.03;;;18.09;92.06
14117;BME280;7137;51.436;6.544;2023-09-08T04:08:05;101274.69;;;18.15;91.94
14117;BME280;7137;51.436;6.544;2023-09-08T04:11:06;101286.47;;;18.09;92.00
14117;BME280;7137;51.436;6.544;2023-09-08T04:14:09;101276.22;;;18.03;92.58
14117;BME280;7137;51.436;6.544;2023-09-08T04:17:11;101280.13;;;17.96;92.89
14117;BME280;7137;51.436;6.544;2023-09-08T04:20:12;101283.97;;;18.06;91.89
14117;BME280;7137;51.436;6.544;2023-09-08T04:23:15;101283.22;;;18.04;91.33
14117;BME280;7137;51.436;6.544;2023-09-08T04:26:17;101286.16;;;17.98;92.18
14117;BME280;7137;51.436;6.544;2023-09-08T04:29:20;101283.78;;;17.94;92.06
14117;BME280;7137;51.436;6.544;2023-09-08T04:32:21;101283.31;;;17.86;93.93
14117;BME280;7137;51.436;6.544;2023-09-08T04:35:23;101279.81;;;17.85;93.55
14117;BME280;7137;51.436;6.544;2023-09-08T04:38:24;101282.31;;;17.88;93.45
14117;BME280;7137;51.436;6.544;2023-09-08T04:41:26;101285.66;;;17.92;93.33
14117;BME280;7137;51.436;6.544;2023-09-08T04:44:29;101282.31;;;17.88;93.13
14117;BME280;7137;51.436;6.544;2023-09-08T04:47:30;101284.25;;;17.85;93.14
14117;BME280;7137;51.436;6.544;2023-09-08T04:50:33;101283.56;;;17.81;94.50
14117;BME280;7137;51.436;6.544;2023-09-08T04:53:34;101287.84;;;17.84;93.55
14117;BME280;7137;51.436;6.544;2023-09-08T04:56:38;101285.69;;;17.74;94.82
14117;BME280;7137;51.436;6.544;2023-09-08T04:59:41;101285.59;;;17.76;93.89
14117;BME280;7137;51.436;6.544;2023-09-08T05:02:42;101281.88;;;17.80;94.45
14117;BME280;7137;51.436;6.544;2023-09-08T05:05:45;101283.94;;;17.73;94.87
14117;BME280;7137;51.436;6.544;2023-09-08T05:08:46;101287.41;;;17.75;94.18
14117;BME280;7137;51.436;6.544;2023-09-08T05:11:48;101294.47;;;17.75;95.18
14117;BME280;7137;51.436;6.544;2023-09-08T05:14:51;101284.88;;;17.72;95.19
14117;BME280;7137;51.436;6.544;2023-09-08T05:17:56;101291.66;;;17.78;94.27
14117;BME280;7137;51.436;6.544;2023-09-08T05:20:58;101285.44;;;17.79;93.77
14117;BME280;7137;51.436;6.544;2023-09-08T05:23:59;101291.41;;;17.83;94.48
14117;BME280;7137;51.436;6.544;2023-09-08T05:27:01;101291.25;;;17.86;94.67
14117;BME280;7137;51.436;6.544;2023-09-08T05:30:05;101295.38;;;17.91;94.68
14117;BME280;7137;51.436;6.544;2023-09-08T05:33:07;101298.03;;;17.91;94.73
14117;BME280;7137;51.436;6.544;2023-09-08T05:36:08;101299.16;;;18.03;94.06
14117;BME280;7137;51.436;6.544;2023-09-08T05:39:10;101297.72;;;18.13;92.74
14117;BME280;7137;51.436;6.544;2023-09-08T05:42:13;101298.66;;;18.12;93.27
14117;BME280;7137;51.436;6.544;2023-09-08T05:45:16;101296.78;;;18.14;93.66
14117;BME280;7137;51.436;6.544;2023-09-08T05:48:18;101303.47;;;18.21;93.74
14117;BME280;7137;51.436;6.544;2023-09-08T05:51:19;101305.00;;;18.25;92.89
14117;BME280;7137;51.436;6.544;2023-09-08T05:54:22;101303.66;;;18.34;93.39
14117;BME280;7137;51.436;6.544;2023-09-08T05:57:24;101306.91;;;18.39;93.21
14117;BME280;7137;51.436;6.544;2023-09-08T06:00:27;101304.53;;;18.50;92.67
14117;BME280;7137;51.436;6.544;2023-09-08T06:03:29;101301.78;;;18.52;93.50
14117;BME280;7137;51.436;6.544;2023-09-08T06:06:30;101304.69;;;18.63;91.71
14117;BME280;7137;51.436;6.544;2023-09-08T06:09:32;101320.63;;;18.79;91.60
14117;BME280;7137;51.436;6.544;2023-09-08T06:12:34;101311.38;;;18.86;91.03
14117;BME280;7137;51.436;6.544;2023-09-08T06:15:37;101309.13;;;19.10;89.28
14117;BME280;7137;51.436;6.544;2023-09-08T06:18:38;101312.03;;;19.21;87.79
14117;BME280;7137;51.436;6.544;2023-09-08T06:21:41;101304.03;;;19.37;88.29
14117;BME280;7137;51.436;6.544;2023-09-08T06:24:42;101307.75;;;19.48;85.76
14117;BME280;7137;51.436;6.544;2023-09-08T06:27:44;101302.13;;;19.69;85.77
14117;BME280;7137;51.436;6.544;2023-09-08T06:30:47;101305.38;;;19.74;85.46
14117;BME280;7137;51.436;6.544;2023-09-08T06:33:48;101301.72;;;19.91;85.09
14117;BME280;7137;51.436;6.544;2023-09-08T06:36:52;101305.41;;;20.16;83.30
14117;BME280;7137;51.436;6.544;2023-09-08T06:39:55;101311.84;;;20.41;83.20
14117;BME280;7137;51.436;6.544;2023-09-08T06:42:56;101305.16;;;20.77;80.58
14117;BME280;7137;51.436;6.544;2023-09-08T06:45:59;101313.19;;;21.16;78.44
14117;BME280;7137;51.436;6.544;2023-09-08T06:49:01;101318.75;;;22.78;71.30
14117;BME280;7137;51.436;6.544;2023-09-08T06:52:02;101320.00;;;22.98;69.40
14117;BME280;7137;51.436;6.544;2023-09-08T06:55:04;101322.94;;;23.06;69.96
14117;BME280;7137;51.436;6.544;2023-09-08T06:58:06;101327.59;;;22.79;69.05
14117;BME280;7137;51.436;6.544;2023-09-08T07:01:09;101325.97;;;24.52;65.12
14117;BME280;7137;51.436;6.544;2023-09-08T07:04:10;101328.31;;;26.86;56.67
14117;BME280;7137;51.436;6.544;2023-09-08T07:07:12;101337.28;;;29.74;47.59
14117;BME280;7137;51.436;6.544;2023-09-08T07:10:13;101338.19;;;32.70;39.86
14117;BME280;7137;51.436;6.544;2023-09-08T07:13:15;101338.16;;;34.22;36.50
14117;BME280;7137;51.436;6.544;2023-09-08T07:16:18;101349.66;;;35.48;34.58
14117;BME280;7137;51.436;6.544;2023-09-08T07:19:20;101342.53;;;33.94;36.84
14117;BME280;7137;51.436;6.544;2023-09-08T07:22:21;101342.22;;;33.05;38.42
14117;BME280;7137;51.436;6.544;2023-09-08T07:25:23;101336.56;;;33.61;37.94
14117;BME280;7137;51.436;6.544;2023-09-08T07:28:24;101340.31;;;34.93;35.05
14117;BME280;7137;51.436;6.544;2023-09-08T07:31:27;101335.91;;;33.74;37.49
14117;BME280;7137;51.436;6.544;2023-09-08T07:34:29;101335.16;;;32.26;39.13
14117;BME280;7137;51.436;6.544;2023-09-08T07:37:31;101328.31;;;32.46;38.24
14117;BME280;7137;51.436;6.544;2023-09-08T07:40:33;101344.47;;;35.10;35.20
14117;BME280;7137;51.436;6.544;2023-09-08T07:43:34;101342.22;;;34.77;34.82
14117;BME280;7137;51.436;6.544;2023-09-08T07:46:41;101333.09;;;35.21;35.08
14117;BME280;7137;51.436;6.544;2023-09-08T07:49:45;101343.94;;;34.85;34.94
14117;BME280;7137;51.436;6.544;2023-09-08T07:52:48;101335.84;;;33.82;35.68
14117;BME280;7137;51.436;6.544;2023-09-08T07:55:50;101328.97;;;34.23;35.91
14117;BME280;7137;51.436;6.544;2023-09-08T07:58:51;101335.88;;;35.06;35.53
14117;BME280;7137;51.436;6.544;2023-09-08T08:01:54;101336.69;;;36.34;33.21
14117;BME280;7137;51.436;6.544;2023-09-08T08:04:56;101338.16;;;34.37;35.24
14117;BME280;7137;51.436;6.544;2023-09-08T08:07:57;101337.88;;;35.90;33.80
14117;BME280;7137;51.436;6.544;2023-09-08T08:10:59;101329.06;;;35.88;33.44
14117;BME280;7137;51.436;6.544;2023-09-08T08:14:00;101341.47;;;35.26;34.02
14117;BME280;7137;51.436;6.544;2023-09-08T08:17:04;101334.50;;;36.22;32.85
14117;BME280;7137;51.436;6.544;2023-09-08T08:20:07;101341.75;;;36.09;32.30
14117;BME280;7137;51.436;6.544;2023-09-08T08:23:09;101343.25;;;36.52;32.73
14117;BME280;7137;51.436;6.544;2023-09-08T08:26:11;101341.53;;;35.54;33.45
14117;BME280;7137;51.436;6.544;2023-09-08T08:29:12;101324.22;;;34.40;36.17
14117;BME280;7137;51.436;6.544;2023-09-08T08:32:16;101324.13;;;36.39;32.80
14117;BME280;7137;51.436;6.544;2023-09-08T08:35:18;101324.97;;;37.01;31.75
14117;BME280;7137;51.436;6.544;2023-09-08T08:38:19;101327.34;;;37.77;30.05
14117;BME280;7137;51.436;6.544;2023-09-08T08:41:21;101320.53;;;38.19;29.49
14117;BME280;7137;51.436;6.544;2023-09-08T08:44:23;101323.53;;;37.25;31.34
14117;BME280;7137;51.436;6.544;2023-09-08T08:47:27;101320.34;;;38.07;28.96
14117;BME280;7137;51.436;6.544;2023-09-08T08:50:29;101329.81;;;38.63;29.61
14117;BME280;7137;51.436;6.544;2023-09-08T08:53:32;101314.19;;;36.73;32.53
14117;BME280;7137;51.436;6.544;2023-09-08T08:56:35;101327.06;;;37.12;30.42
14117;BME280;7137;51.436;6.544;2023-09-08T08:59:38;101329.91;;;38.87;28.95
14117;BME280;7137;51.436;6.544;2023-09-08T09:02:43;101333.59;;;37.97;29.54
14117;BME280;7137;51.436;6.544;2023-09-08T09:05:44;101330.25;;;36.54;32.36
14117;BME280;7137;51.436;6.544;2023-09-08T09:08:46;101332.69;;;36.84;31.70
14117;BME280;7137;51.436;6.544;2023-09-08T09:11:48;101330.06;;;37.43;30.05
14117;BME280;7137;51.436;6.544;2023-09-08T09:14:52;101332.31;;;37.13;31.20
14117;BME280;7137;51.436;6.544;2023-09-08T09:18:03;101325.69;;;36.20;33.53
14117;BME280;7137;51.436;6.544;2023-09-08T09:21:05;101321.44;;;36.11;31.44
14117;BME280;7137;51.436;6.544;2023-09-08T09:24:07;101333.34;;;36.99;30.88
14117;BME280;7137;51.436;6.544;2023-09-08T09:27:09;101332.34;;;39.34;29.62
14117;BME280;7137;51.436;6.544;2023-09-08T09:30:11;101334.00;;;38.00;31.34
14117;BME280;7137;51.436;6.544;2023-09-08T09:33:15;101336.53;;;38.02;29.53
14117;BME280;7137;51.436;6.544;2023-09-08T09:36:20;101333.38;;;39.83;27.25
14117;BME280;7137;51.436;6.544;2023-09-08T09:39:23;101336.97;;;39.02;29.23
14117;BME280;7137;51.436;6.544;2023-09-08T09:42:27;101331.97;;;40.35;27.06
14117;BME280;7137;51.436;6.544;2023-09-08T09:45:29;101330.28;;;37.55;31.34
14117;BME280;7137;51.436;6.544;2023-09-08T09:48:32;101326.44;;;38.09;29.88
14117;BME280;7137;51.436;6.544;2023-09-08T09:51:40;101325.44;;;36.56;31.70
14117;BME280;7137;51.436;6.544;2023-09-08T09:54:42;101327.56;;;37.49;30.61
14117;BME280;7137;51.436;6.544;2023-09-08T09:57:44;101318.03;;;36.03;33.55
14117;BME280;7137;51.436;6.544;2023-09-08T10:00:46;101311.00;;;35.09;34.56
14117;BME280;7137;51.436;6.544;2023-09-08T10:03:51;101320.81;;;35.32;34.42
14117;BME280;7137;51.436;6.544;2023-09-08T10:06:53;101309.78;;;35.33;33.81
14117;BME280;7137;51.436;6.544;2023-09-08T10:09:57;101308.78;;;35.62;33.37
14117;BME280;7137;51.436;6.544;2023-09-08T10:13:02;101313.16;;;34.12;36.38
14117;BME280;7137;51.436;6.544;2023-09-08T10:16:05;101315.94;;;33.14;41.61
14117;BME280;7137;51.436;6.544;2023-09-08T10:19:10;101312.91;;;32.78;41.88
14117;BME280;7137;51.436;6.544;2023-09-08T10:22:12;101312.44;;;32.83;39.07
14117;BME280;7137;51.436;6.544;2023-09-08T10:25:17;101316.28;;;32.88;41.63
14117;BME280;7137;51.436;6.544;2023-09-08T10:28:22;101316.16;;;32.42;42.71
14117;BME280;7137;51.436;6.544;2023-09-08T10:31:25;101304.72;;;32.24;40.91
14117;BME280;7137;51.436;6.544;2023-09-08T10:34:30;101305.34;;;32.42;40.67
14117;BME280;7137;51.436;6.544;2023-09-08T10:37:32;101305.81;;;31.99;41.63
14117;BME280;7137;51.436;6.544;2023-09-08T10:40:34;101309.72;;;31.96;41.94
14117;BME280;7137;51.436;6.544;2023-09-08T10:43:37;101298.22;;;32.02;42.60
14117;BME280;7137;51.436;6.544;2023-09-08T10:46:39;101303.31;;;31.65;44.78
14117;BME280;7137;51.436;6.544;2023-09-08T10:49:41;101300.28;;;31.59;43.63
14117;BME280;7137;51.436;6.544;2023-09-08T10:52:43;101305.03;;;31.33;42.44
14117;BME280;7137;51.436;6.544;2023-09-08T10:55:45;101302.47;;;31.15;42.98
14117;BME280;7137;51.436;6.544;2023-09-08T10:58:50;101306.53;;;31.03;42.44
14117;BME280;7137;51.436;6.544;2023-09-08T11:01:54;101311.22;;;31.09;45.64
14117;BME280;7137;51.436;6.544;2023-09-08T11:04:58;101308.53;;;30.93;42.50
14117;BME280;7137;51.436;6.544;2023-09-08T11:08:00;101303.66;;;31.13;43.58
14117;BME280;7137;51.436;6.544;2023-09-08T11:11:02;101309.25;;;31.11;41.97
14117;BME280;7137;51.436;6.544;2023-09-08T11:14:03;101297.25;;;31.14;42.58
14117;BME280;7137;51.436;6.544;2023-09-08T11:17:05;101306.19;;;31.63;43.86
14117;BME280;7137;51.436;6.544;2023-09-08T11:20:08;101294.50;;;31.95;41.38
14117;BME280;7137;51.436;6.544;2023-09-08T11:23:13;101297.41;;;32.41;40.49
14117;BME280;7137;51.436;6.544;2023-09-08T11:26:15;101295.84;;;32.46;39.46
14117;BME280;7137;51.436;6.544;2023-09-08T11:29:18;101292.94;;;32.79;41.25
14117;BME280;7137;51.436;6.544;2023-09-08T11:32:19;101298.59;;;32.69;40.47
14117;BME280;7137;51.436;6.544;2023-09-08T11:35:26;101292.94;;;32.79;37.97
14117;BME280;7137;51.436;6.544;2023-09-08T11:38:29;101285.59;;;33.42;37.17
14117;BME280;7137;51.436;6.544;2023-09-08T11:41:31;101286.50;;;33.34;36.61
14117;BME280;7137;51.436;6.544;2023-09-08T11:44:33;101286.09;;;33.75;35.87
14117;BME280;7137;51.436;6.544;2023-09-08T11:47:36;101290.31;;;33.92;36.50
14117;BME280;7137;51.436;6.544;2023-09-08T11:50:40;101281.41;;;33.31;38.05
14117;BME280;7137;51.436;6.544;2023-09-08T11:53:42;101283.06;;;33.17;37.82
14117;BME280;7137;51.436;6.544;2023-09-08T11:56:44;101280.28;;;33.25;36.73
14117;BME280;7137;51.436;6.544;2023-09-08T11:59:47;101273.25;;;32.62;37.93
14117;BME280;7137;51.436;6.544;2023-09-08T12:02:49;101276.84;;;32.24;38.13
14117;BME280;7137;51.436;6.544;2023-09-08T12:05:52;101271.47;;;32.15;38.89
14117;BME280;7137;51.436;6.544;2023-09-08T12:08:55;101264.91;;;32.10;39.69
14117;BME280;7137;51.436;6.544;2023-09-08T12:12:03;101271.34;;;31.93;40.76
14117;BME280;7137;51.436;6.544;2023-09-08T12:15:05;101262.75;;;31.89;40.32
14117;BME280;7137;51.436;6.544;2023-09-08T12:18:08;101271.25;;;31.70;39.36
14117;BME280;7137;51.436;6.544;2023-09-08T12:21:11;101264.66;;;31.72;41.30
14117;BME280;7137;51.436;6.544;2023-09-08T12:24:13;101265.50;;;31.65;40.69
14117;BME280;7137;51.436;6.544;2023-09-08T12:27:14;101267.69;;;31.69;42.08
14117;BME280;7137;51.436;6.544;2023-09-08T12:30:17;101269.25;;;31.55;40.86
14117;BME280;7137;51.436;6.544;2023-09-08T12:33:19;101272.25;;;31.60;40.97
14117;BME280;7137;51.436;6.544;2023-09-08T12:36:23;101272.13;;;31.29;42.25
14117;BME280;7137;51.436;6.544;2023-09-08T12:39:25;101267.22;;;31.41;41.10
14117;BME280;7137;51.436;6.544;2023-09-08T12:42:26;101267.19;;;31.66;43.04
14117;BME280;7137;51.436;6.544;2023-09-08T12:45:29;101262.75;;;31.89;41.26
14117;BME280;7137;51.436;6.544;2023-09-08T12:48:31;101256.03;;;31.85;40.51
14117;BME280;7137;51.436;6.544;2023-09-08T12:51:34;101254.84;;;31.87;40.80
14117;BME280;7137;51.436;6.544;2023-09-08T12:54:37;101250.69;;;32.08;41.01
14117;BME280;7137;51.436;6.544;2023-09-08T12:57:39;101256.09;;;32.08;39.92
14117;BME280;7137;51.436;6.544;2023-09-08T13:00:41;101249.72;;;32.01;41.38
14117;BME280;7137;51.436;6.544;2023-09-08T13:03:42;101252.31;;;31.78;40.78
14117;BME280;7137;51.436;6.544;2023-09-08T13:06:45;101245.22;;;31.85;40.39
14117;BME280;7137;51.436;6.544;2023-09-08T13:09:47;101248.41;;;31.80;40.21
14117;BME280;7137;51.436;6.544;2023-09-08T13:12:49;101247.94;;;31.77;40.65
14117;BME280;7137;51.436;6.544;2023-09-08T13:15:51;101246.06;;;31.85;40.68
14117;BME280;7137;51.436;6.544;2023-09-08T13:18:52;101244.03;;;31.87;40.80
14117;BME280;7137;51.436;6.544;2023-09-08T13:21:55;101241.63;;;31.93;40.27
14117;BME280;7137;51.436;6.544;2023-09-08T13:24:57;101236.63;;;31.81;39.32
14117;BME280;7137;51.436;6.544;2023-09-08T13:27:58;101230.53;;;31.71;40.21
14117;BME280;7137;51.436;6.544;2023-09-08T13:31:00;101230.88;;;31.76;39.73
14117;BME280;7137;51.436;6.544;2023-09-08T13:34:01;101237.41;;;31.90;39.84
14117;BME280;7137;51.436;6.544;2023-09-08T13:37:05;101217.00;;;31.71;40.43
14117;BME280;7137;51.436;6.544;2023-09-08T13:40:07;101216.38;;;31.61;40.09
14117;BME280;7137;51.436;6.544;2023-09-08T13:43:09;101226.97;;;31.71;40.65
14117;BME280;7137;51.436;6.544;2023-09-08T13:46:11;101228.00;;;31.78;40.93
14117;BME280;7137;51.436;6.544;2023-09-08T13:49:13;101225.00;;;31.56;40.13
14117;BME280;7137;51.436;6.544;2023-09-08T13:52:16;101214.66;;;31.76;40.29
14117;BME280;7137;51.436;6.544;2023-09-08T13:55:18;101211.22;;;31.90;39.74
14117;BME280;7137;51.436;6.544;2023-09-08T13:58:23;101204.03;;;31.75;39.59
14117;BME280;7137;51.436;6.544;2023-09-08T14:01:25;101210.69;;;31.95;40.34
14117;BME280;7137;51.436;6.544;2023-09-08T14:04:29;101211.16;;;32.07;39.56
14117;BME280;7137;51.436;6.544;2023-09-08T14:07:32;101217.38;;;32.15;39.64
14117;BME280;7137;51.436;6.544;2023-09-08T14:10:33;101212.59;;;32.26;39.77
14117;BME280;7137;51.436;6.544;2023-09-08T14:13:35;101206.84;;;32.29;38.78
14117;BME280;7137;51.436;6.544;2023-09-08T14:16:36;101210.50;;;32.36;39.25
14117;BME280;7137;51.436;6.544;2023-09-08T14:19:38;101209.44;;;32.45;38.32
14117;BME280;7137;51.436;6.544;2023-09-08T14:22:41;101213.06;;;32.60;38.78
14117;BME280;7137;51.436;6.544;2023-09-08T14:25:42;101213.44;;;32.57;38.67
14117;BME280;7137;51.436;6.544;2023-09-08T14:28:44;101210.41;;;32.29;39.87
14117;BME280;7137;51.436;6.544;2023-09-08T14:31:46;101204.75;;;32.39;39.52
14117;BME280;7137;51.436;6.544;2023-09-08T14:34:48;101199.66;;;32.44;39.22
14117;BME280;7137;51.436;6.544;2023-09-08T14:37:51;101202.41;;;32.59;39.00
14117;BME280;7137;51.436;6.544;2023-09-08T14:40:57;101204.06;;;32.06;39.92
14117;BME280;7137;51.436;6.544;2023-09-08T14:43:59;101200.16;;;32.08;39.92
14117;BME280;7137;51.436;6.544;2023-09-08T14:47:00;101198.47;;;32.07;40.94
14117;BME280;7137;51.436;6.544;2023-09-08T14:50:02;101200.41;;;32.30;41.13
14117;BME280;7137;51.436;6.544;2023-09-08T14:53:05;101197.44;;;32.08;40.40
14117;BME280;7137;51.436;6.544;2023-09-08T14:56:08;101193.97;;;32.23;40.52
14117;BME280;7137;51.436;6.544;2023-09-08T14:59:10;101193.91;;;32.08;41.00
14117;BME280;7137;51.436;6.544;2023-09-08T15:02:11;101193.66;;;32.26;41.91
14117;BME280;7137;51.436;6.544;2023-09-08T15:05:13;101194.34;;;32.28;41.70
14117;BME280;7137;51.436;6.544;2023-09-08T15:08:16;101187.69;;;32.38;40.98
14117;BME280;7137;51.436;6.544;2023-09-08T15:11:19;101185.00;;;32.38;41.40
14117;BME280;7137;51.436;6.544;2023-09-08T15:14:20;101191.81;;;32.49;41.58
14117;BME280;7137;51.436;6.544;2023-09-08T15:17:22;101189.53;;;32.61;41.28
14117;BME280;7137;51.436;6.544;2023-09-08T15:20:24;101195.81;;;32.61;40.45
14117;BME280;7137;51.436;6.544;2023-09-08T15:23:27;101191.09;;;32.78;39.60
14117;BME280;7137;51.436;6.544;2023-09-08T15:26:28;101188.75;;;32.21;41.21
14117;BME280;7137;51.436;6.544;2023-09-08T15:29:30;101186.22;;;31.97;41.81
14117;BME280;7137;51.436;6.544;2023-09-08T15:32:31;101189.59;;;32.22;41.79
14117;BME280;7137;51.436;6.544;2023-09-08T15:35:33;101179.09;;;32.27;41.73
14117;BME280;7137;51.436;6.544;2023-09-08T15:38:36;101176.50;;;32.10;41.23
14117;BME280;7137;51.436;6.544;2023-09-08T15:41:37;101178.25;;;31.95;42.17
14117;BME280;7137;51.436;6.544;2023-09-08T15:44:39;101174.00;;;32.01;41.87
14117;BME280;7137;51.436;6.544;2023-09-08T15:47:41;101174.75;;;32.17;41.79
14117;BME280;7137;51.436;6.544;2023-09-08T15:50:42;101167.63;;;32.25;41.88
14117;BME280;7137;51.436;6.544;2023-09-08T15:53:45;101171.50;;;32.30;41.79
14117;BME280;7137;51.436;6.544;2023-09-08T15:56:47;101172.97;;;32.10;41.42
14117;BME280;7137;51.436;6.544;2023-09-08T15:59:49;101171.91;;;31.72;43.09
14117;BME280;7137;51.436;6.544;2023-09-08T16:02:50;101174.88;;;31.46;43.77
14117;BME280;7137;51.436;6.544;2023-09-08T16:05:53;101173.72;;;31.32;43.48
14117;BME280;7137;51.436;6.544;2023-09-08T16:08:56;101176.59;;;31.30;43.35